Time;durP1;ratioP1;P1;durP2;ratioP2;P2;SDS_P1;SDS_P2;PMS_P1;PMS_P2;Temp;Humidity;BMP_temperature;BMP_pressure;BME280_temperature;BME280_humidity;BME280_pressure;Samples;Min_cycle;Max_cycle;Signal;HPM_P1;HPM_P2
2023/07/01 00:00:55;;;;;;;0.82;0.82;;;18.00;99.90;;;;;;4434725;32;20533;-78
2023/07/01 00:03:21;;;;;;;4.85;1.05;;;18.00;99.90;;;;;;4432109;32;20533;-74
2023/07/01 00:05:46;;;;;;;0.70;0.70;;;18.00;99.90;;;;;;4431101;32;20084;-76
2023/07/01 00:08:12;;;;;;;6.37;0.90;;;18.00;99.90;;;;;;4432316;32;20168;-76
2023/07/01 00:10:37;;;;;;;0.40;0.40;;;18.10;99.90;;;;;;4430465;32;20413;-76
2023/07/01 00:13:03;;;;;;;0.30;0.30;;;18.00;99.90;;;;;;4429855;32;20529;-76
2023/07/01 00:15:29;;;;;;;0.40;0.40;;;17.80;99.90;;;;;;4430821;32;21426;-76
2023/07/01 00:17:54;;;;;;;0.50;0.50;;;17.80;99.90;;;;;;4428199;32;20548;-76
2023/07/01 00:20:21;;;;;;;0.50;0.50;;;17.80;99.90;;;;;;4428605;32;20065;-76
2023/07/01 00:22:46;;;;;;;0.62;0.55;;;17.90;99.90;;;;;;4430558;32;20116;-75
2023/07/01 00:25:13;;;;;;;0.80;0.45;;;17.90;99.90;;;;;;4431788;32;20072;-77
2023/07/01 00:27:39;;;;;;;0.47;0.45;;;17.90;99.90;;;;;;4434536;32;20080;-78
2023/07/01 00:30:05;;;;;;;1.60;0.65;;;18.00;99.90;;;;;;4431729;32;20132;-75
2023/07/01 00:32:31;;;;;;;0.30;0.30;;;18.00;99.90;;;;;;4430295;32;20542;-75
2023/07/01 00:34:56;;;;;;;0.30;0.30;;;18.10;99.90;;;;;;4426878;32;21595;-75
2023/07/01 00:37:22;;;;;;;0.40;0.40;;;18.00;99.90;;;;;;4427775;32;20057;-76
2023/07/01 00:39:47;;;;;;;1.37;0.43;;;18.00;99.90;;;;;;4431450;32;20081;-76
2023/07/01 00:42:13;;;;;;;0.62;0.62;;;18.00;99.90;;;;;;4431045;32;20710;-79
2023/07/01 00:44:39;;;;;;;0.40;0.40;;;17.90;99.90;;;;;;4432659;32;20174;-76
2023/07/01 00:47:05;;;;;;;0.40;0.40;;;17.90;99.90;;;;;;4430156;32;20089;-76
2023/07/01 00:49:31;;;;;;;0.30;0.30;;;17.80;99.90;;;;;;4430181;32;20069;-75
2023/07/01 00:52:03;;;;;;;1.08;0.57;;;17.90;99.90;;;;;;4426676;32;20741;-77
2023/07/01 00:54:29;;;;;;;0.30;0.30;;;17.90;99.90;;;;;;4430995;32;20088;-76
2023/07/01 00:56:55;;;;;;;0.30;0.30;;;17.90;99.90;;;;;;4431160;32;21791;-78
2023/07/01 00:59:20;;;;;;;1.85;0.73;;;17.80;99.90;;;;;;4434770;32;21315;-76
2023/07/01 01:01:52;;;;;;;0.60;0.60;;;17.80;99.90;;;;;;4431670;32;20167;-75
2023/07/01 01:04:31;;;;;;;0.25;0.25;;;17.80;99.90;;;;;;4433403;32;20065;-76
2023/07/01 01:07:03;;;;;;;5.57;1.02;;;17.80;99.90;;;;;;4435087;32;20144;-77
2023/07/01 01:09:44;;;;;;;0.45;0.45;;;17.80;99.90;;;;;;4436526;32;20061;-76
2023/07/01 01:12:12;;;;;;;0.50;0.50;;;17.90;99.90;;;;;;4435585;32;20097;-76
2023/07/01 01:14:39;;;;;;;0.47;0.47;;;17.90;99.90;;;;;;4439066;32;20081;-76
2023/07/01 01:17:12;;;;;;;0.40;0.40;;;17.90;99.90;;;;;;4436718;32;20061;-78
2023/07/01 01:19:44;;;;;;;0.30;0.30;;;17.90;99.90;;;;;;4439557;32;20085;-77
2023/07/01 01:22:31;;;;;;;0.40;0.40;;;17.80;99.90;;;;;;4437555;32;20124;-78
2023/07/01 01:25:00;;;;;;;2.00;0.40;;;17.80;99.90;;;;;;4434581;32;20445;-76
2023/07/01 01:27:29;;;;;;;0.73;0.62;;;17.70;99.90;;;;;;4437987;32;20561;-77
2023/07/01 01:29:55;;;;;;;1.20;0.90;;;17.70;99.90;;;;;;4434011;32;20089;-76
2023/07/01 01:32:20;;;;;;;1.00;0.70;;;17.70;99.90;;;;;;4434177;32;21387;-77
2023/07/01 01:34:46;;;;;;;0.52;0.37;;;17.60;99.90;;;;;;4438894;32;20072;-76
2023/07/01 01:37:19;;;;;;;0.30;0.30;;;17.70;99.90;;;;;;4435384;32;20509;-77
2023/07/01 01:39:50;;;;;;;0.40;0.40;;;17.70;99.90;;;;;;4435457;32;20140;-77
2023/07/01 01:42:21;;;;;;;;;;;17.70;99.90;;;;;;4436596;32;20497;-76
2023/07/01 01:44:51;;;;;;;;;;;17.70;99.90;;;;;;4435363;32;19957;-77
2023/07/01 01:47:21;;;;;;;0.37;0.37;;;17.60;99.90;;;;;;4436274;32;19945;-78
2023/07/01 01:49:52;;;;;;;0.60;0.60;;;17.60;99.90;;;;;;4436155;32;20070;-77
2023/07/01 01:52:19;;;;;;;0.50;0.50;;;17.60;99.90;;;;;;4436439;32;20077;-77
2023/07/01 01:54:47;;;;;;;0.37;0.37;;;17.70;99.90;;;;;;4435901;32;20516;-76
2023/07/01 01:57:13;;;;;;;0.40;0.40;;;17.70;99.90;;;;;;4436598;32;20064;-77
2023/07/01 01:59:40;;;;;;;0.40;0.40;;;17.70;99.90;;;;;;4434403;32;20104;-76
2023/07/01 02:02:06;;;;;;;0.30;0.30;;;17.60;99.90;;;;;;4434695;32;20730;-76
2023/07/01 02:04:37;;;;;;;3.15;1.35;;;17.60;99.90;;;;;;4437429;32;20061;-77
2023/07/01 02:07:03;;;;;;;0.50;0.50;;;17.60;99.90;;;;;;4434868;32;20073;-75
2023/07/01 02:09:28;;;;;;;0.40;0.40;;;17.60;99.90;;;;;;4437340;32;20066;-77
2023/07/01 02:11:57;;;;;;;0.45;0.45;;;17.60;99.90;;;;;;4431580;32;20446;-77
2023/07/01 02:14:23;;;;;;;0.52;0.52;;;17.70;99.90;;;;;;4435676;32;20115;-77
2023/07/01 02:16:50;;;;;;;0.40;0.40;;;17.60;99.90;;;;;;4436444;32;20102;-77
2023/07/01 02:19:15;;;;;;;0.30;0.30;;;17.60;99.90;;;;;;4438264;32;20105;-76
2023/07/01 02:21:41;;;;;;;2.10;0.40;;;17.60;99.90;;;;;;4436021;32;20073;-77
2023/07/01 02:24:07;;;;;;;0.60;0.60;;;17.50;99.90;;;;;;4436594;32;20072;-76
2023/07/01 02:26:33;;;;;;;1.17;0.70;;;17.50;99.90;;;;;;4434931;32;20516;-77
2023/07/01 02:28:59;;;;;;;1.00;0.57;;;17.40;99.90;;;;;;4436352;32;20106;-77
2023/07/01 02:31:24;;;;;;;1.35;0.50;;;17.40;99.90;;;;;;4436064;32;20076;-77
2023/07/01 02:33:51;;;;;;;0.52;0.52;;;17.50;99.90;;;;;;4435758;32;20105;-77
2023/07/01 02:36:17;;;;;;;0.30;0.30;;;17.40;99.90;;;;;;4436399;32;20140;-77
2023/07/01 02:38:43;;;;;;;0.73;0.55;;;17.50;99.90;;;;;;4436480;32;20521;-77
2023/07/01 02:41:08;;;;;;;0.40;0.40;;;17.50;99.90;;;;;;4435905;32;20134;-76
2023/07/01 02:43:39;;;;;;;0.93;0.73;;;17.50;99.90;;;;;;4433379;32;20089;-76
2023/07/01 02:46:05;;;;;;;0.35;0.35;;;17.40;99.90;;;;;;4434249;32;20064;-77
2023/07/01 02:48:30;;;;;;;0.57;0.57;;;17.40;99.90;;;;;;4434332;32;20088;-77
2023/07/01 02:50:56;;;;;;;1.10;1.00;;;17.30;99.90;;;;;;4432848;32;20108;-77
2023/07/01 02:53:21;;;;;;;0.68;0.47;;;17.30;99.90;;;;;;4434707;32;20492;-77
2023/07/01 02:55:47;;;;;;;0.37;0.37;;;17.30;99.90;;;;;;4436348;32;20076;-77
2023/07/01 02:58:12;;;;;;;0.70;0.52;;;17.30;99.90;;;;;;4435160;32;20080;-77
2023/07/01 03:00:38;;;;;;;0.30;0.30;;;17.20;99.90;;;;;;4435298;32;20130;-76
2023/07/01 03:03:07;;;;;;;1.10;0.80;;;17.30;99.90;;;;;;4434413;32;21244;-76
2023/07/01 03:05:36;;;;;;;0.35;0.35;;;17.30;99.90;;;;;;4434462;32;20126;-76
2023/07/01 03:08:05;;;;;;;0.30;0.30;;;17.30;99.90;;;;;;4434699;32;20085;-78
2023/07/01 03:10:30;;;;;;;1.08;0.60;;;17.20;99.90;;;;;;4434530;32;20519;-77
2023/07/01 03:12:58;;;;;;;0.30;0.30;;;17.20;99.90;;;;;;4433744;32;20168;-76
2023/07/01 03:15:23;;;;;;;0.43;0.40;;;17.20;99.90;;;;;;4432998;32;20096;-77
2023/07/01 03:17:49;;;;;;;0.43;0.43;;;17.20;99.90;;;;;;4433607;32;20388;-76
2023/07/01 03:20:30;;;;;;;0.40;0.40;;;17.20;99.90;;;;;;4432995;32;20073;-77
2023/07/01 03:22:57;;;;;;;6.60;1.30;;;17.20;99.90;;;;;;4430605;32;20081;-77
2023/07/01 03:25:25;;;;;;;0.45;0.45;;;17.20;99.90;;;;;;4437165;32;20077;-76
2023/07/01 03:27:52;;;;;;;0.47;0.47;;;17.30;99.90;;;;;;4436058;32;20127;-77
2023/07/01 03:30:21;;;;;;;0.30;0.30;;;17.30;99.90;;;;;;4433322;32;20077;-76
2023/07/01 03:32:47;;;;;;;0.45;0.45;;;17.30;99.90;;;;;;4434992;32;20072;-77
2023/07/01 03:35:14;;;;;;;0.62;0.60;;;17.30;99.90;;;;;;4434749;32;20093;-76
2023/07/01 03:37:42;;;;;;;0.50;0.50;;;17.30;99.90;;;;;;4432137;32;20097;-77
2023/07/01 03:40:10;;;;;;;0.57;0.57;;;17.30;99.90;;;;;;4433536;32;20077;-77
2023/07/01 03:42:37;;;;;;;0.47;0.47;;;17.20;99.90;;;;;;4434802;32;20089;-76
2023/07/01 03:45:05;;;;;;;0.68;0.68;;;17.20;99.90;;;;;;4434744;32;20065;-77
2023/07/01 03:47:31;;;;;;;0.30;0.30;;;17.20;99.90;;;;;;4433595;32;20095;-77
2023/07/01 03:49:56;;;;;;;0.47;0.47;;;17.20;99.90;;;;;;4434630;32;20093;-77
2023/07/01 03:52:21;;;;;;;0.50;0.50;;;17.20;99.90;;;;;;4435248;32;20077;-77
2023/07/01 03:54:47;;;;;;;0.73;0.73;;;17.10;99.90;;;;;;4436001;32;20065;-77
2023/07/01 03:57:12;;;;;;;0.50;0.50;;;17.10;99.90;;;;;;4433791;32;20101;-77
2023/07/01 03:59:38;;;;;;;0.30;0.30;;;17.10;99.90;;;;;;4436751;32;20434;-77
2023/07/01 04:02:05;;;;;;;0.50;0.50;;;17.00;99.90;;;;;;4438551;32;20084;-78
2023/07/01 04:04:30;;;;;;;0.70;0.70;;;17.10;99.90;;;;;;4435746;32;20135;-77
2023/07/01 04:06:57;;;;;;;0.40;0.40;;;17.10;99.90;;;;;;4434812;32;20124;-77
2023/07/01 04:09:29;;;;;;;0.60;0.50;;;17.20;99.90;;;;;;4437459;32;20500;-77
2023/07/01 04:11:55;;;;;;;0.40;0.40;;;17.10;99.90;;;;;;4436211;32;20061;-77
2023/07/01 04:14:24;;;;;;;0.40;0.40;;;17.20;99.90;;;;;;4436470;32;20097;-77
2023/07/01 04:16:52;;;;;;;0.57;0.57;;;17.30;99.90;;;;;;4436299;32;20093;-77
2023/07/01 04:19:17;;;;;;;0.35;0.35;;;17.30;99.90;;;;;;4433844;32;20073;-78
2023/07/01 04:21:43;;;;;;;4.57;0.80;;;17.30;99.90;;;;;;4436377;32;20151;-78
2023/07/01 04:24:08;;;;;;;0.45;0.45;;;17.30;99.90;;;;;;4436003;32;20065;-78
2023/07/01 04:26:35;;;;;;;2.83;0.50;;;17.40;99.90;;;;;;4436330;32;20498;-77
2023/07/01 04:29:01;;;;;;;0.50;0.50;;;17.40;99.90;;;;;;4436768;32;20499;-78
2023/07/01 04:31:26;;;;;;;0.45;0.45;;;17.40;99.90;;;;;;4439116;32;20422;-78
2023/07/01 04:33:52;;;;;;;0.73;0.60;;;17.40;99.90;;;;;;4438139;32;20077;-77
2023/07/01 04:36:17;;;;;;;2.08;0.73;;;17.40;99.90;;;;;;4436362;32;20061;-77
2023/07/01 04:38:43;;;;;;;0.32;0.32;;;17.50;99.90;;;;;;4438299;32;20077;-77
2023/07/01 04:41:08;;;;;;;0.40;0.40;;;17.40;99.90;;;;;;4436720;32;20061;-77
2023/07/01 04:43:35;;;;;;;0.40;0.40;;;17.50;99.90;;;;;;4439980;32;20064;-78
2023/07/01 04:46:01;;;;;;;1.35;0.68;;;17.50;99.90;;;;;;4439738;32;20074;-77
2023/07/01 04:48:27;;;;;;;0.35;0.35;;;17.40;99.90;;;;;;4438814;32;20413;-77
2023/07/01 04:50:53;;;;;;;0.65;0.55;;;17.40;99.90;;;;;;4436492;32;20072;-78
2023/07/01 04:53:19;;;;;;;0.40;0.40;;;17.50;99.90;;;;;;4436447;32;20061;-77
2023/07/01 04:55:45;;;;;;;0.70;0.60;;;17.50;99.90;;;;;;4433839;32;20515;-77
2023/07/01 04:58:10;;;;;;;0.50;0.50;;;17.50;99.90;;;;;;4434229;32;20487;-77
2023/07/01 05:00:37;;;;;;;0.40;0.40;;;17.50;99.90;;;;;;4436087;32;20081;-77
2023/07/01 05:03:03;;;;;;;0.77;0.62;;;17.50;99.90;;;;;;4435324;32;20101;-77
2023/07/01 05:05:30;;;;;;;0.82;0.82;;;17.50;99.90;;;;;;4429768;32;20117;-76
2023/07/01 05:07:56;;;;;;;0.40;0.40;;;17.60;99.90;;;;;;4435856;32;20077;-77
2023/07/01 05:10:22;;;;;;;0.30;0.30;;;17.60;99.90;;;;;;4436252;32;20092;-76
2023/07/01 05:12:49;;;;;;;0.40;0.40;;;17.60;99.90;;;;;;4438335;32;20422;-78
2023/07/01 05:15:17;;;;;;;17.98;1.42;;;17.50;99.90;;;;;;4437031;32;20069;-77
2023/07/01 05:17:43;;;;;;;18.42;1.00;;;17.50;99.90;;;;;;4435268;32;20218;-76
2023/07/01 05:20:10;;;;;;;0.65;0.52;;;17.50;99.90;;;;;;4431364;32;20105;-77
2023/07/01 05:22:35;;;;;;;0.50;0.50;;;17.50;99.90;;;;;;4435067;32;20438;-77
2023/07/01 05:25:03;;;;;;;0.30;0.30;;;17.60;99.90;;;;;;4436879;32;20077;-75
2023/07/01 05:27:30;;;;;;;0.52;0.52;;;17.60;99.90;;;;;;4435456;32;20526;-78
2023/07/01 05:29:57;;;;;;;0.40;0.40;;;17.60;99.90;;;;;;4432755;32;20096;-78
2023/07/01 05:32:29;;;;;;;1.35;0.52;;;17.70;99.90;;;;;;4434592;32;20077;-78
2023/07/01 05:34:55;;;;;;;0.60;0.60;;;17.70;99.90;;;;;;4435918;32;20133;-77
2023/07/01 05:37:24;;;;;;;0.40;0.40;;;17.70;99.90;;;;;;4438905;32;20476;-76
2023/07/01 05:39:50;;;;;;;1.12;0.85;;;17.70;99.90;;;;;;4438560;32;20112;-78
2023/07/01 05:42:16;;;;;;;0.82;0.80;;;17.80;99.90;;;;;;4435608;32;20101;-78
2023/07/01 05:44:43;;;;;;;0.50;0.50;;;17.90;99.90;;;;;;4437359;32;20098;-78
2023/07/01 05:47:08;;;;;;;0.93;0.57;;;18.00;99.90;;;;;;4438294;32;20217;-78
2023/07/01 05:49:33;;;;;;;4.47;0.82;;;18.00;99.90;;;;;;4439028;32;20061;-77
2023/07/01 05:52:11;;;;;;;0.60;0.60;;;18.00;99.90;;;;;;4438067;32;20069;-77
2023/07/01 05:54:36;;;;;;;0.30;0.30;;;18.10;99.90;;;;;;4436780;32;20107;-77
2023/07/01 05:57:02;;;;;;;0.40;0.40;;;18.10;99.90;;;;;;4439213;32;20564;-77
2023/07/01 05:59:28;;;;;;;0.60;0.60;;;18.20;99.90;;;;;;4440045;32;20065;-77
2023/07/01 06:01:56;;;;;;;0.43;0.43;;;18.30;99.90;;;;;;4436518;32;20132;-77
2023/07/01 06:04:22;;;;;;;0.50;0.50;;;18.30;99.90;;;;;;4438377;32;20120;-77
2023/07/01 06:06:48;;;;;;;0.45;0.45;;;18.20;99.90;;;;;;4436138;32;20569;-77
2023/07/01 06:09:15;;;;;;;1.17;0.50;;;18.30;99.90;;;;;;4439781;32;20061;-77
2023/07/01 06:11:42;;;;;;;0.45;0.37;;;18.40;99.90;;;;;;4438341;32;20129;-77
2023/07/01 06:14:07;;;;;;;1.55;0.62;;;18.40;99.90;;;;;;4438679;32;20085;-78
2023/07/01 06:16:33;;;;;;;0.50;0.50;;;18.50;99.90;;;;;;4436736;32;20084;-76
2023/07/01 06:18:58;;;;;;;0.40;0.40;;;18.50;99.90;;;;;;4437582;32;20086;-77
2023/07/01 06:21:24;;;;;;;0.50;0.50;;;18.50;99.90;;;;;;4438812;32;20065;-77
2023/07/01 06:23:53;;;;;;;0.50;0.50;;;18.60;99.90;;;;;;4436562;32;20096;-77
2023/07/01 06:26:20;;;;;;;0.37;0.37;;;18.70;99.90;;;;;;4435139;32;20068;-77
2023/07/01 06:28:47;;;;;;;0.90;0.50;;;18.70;99.90;;;;;;4435818;32;20120;-77
2023/07/01 06:31:13;;;;;;;0.30;0.30;;;18.80;99.90;;;;;;4433153;32;20560;-76
2023/07/01 06:33:38;;;;;;;0.65;0.65;;;18.80;99.90;;;;;;4436154;32;20065;-77
2023/07/01 06:36:05;;;;;;;0.40;0.40;;;18.90;99.90;;;;;;4435791;32;20147;-78
2023/07/01 06:38:30;;;;;;;1.30;0.40;;;18.90;99.90;;;;;;4435515;32;20553;-77
2023/07/01 06:40:56;;;;;;;0.62;0.55;;;19.00;99.90;;;;;;4434244;32;20093;-76
2023/07/01 06:43:27;;;;;;;0.40;0.40;;;19.10;99.90;;;;;;4435448;32;20073;-76
2023/07/01 06:45:54;;;;;;;0.57;0.57;;;19.20;99.90;;;;;;4433985;32;20135;-77
2023/07/01 06:48:20;;;;;;;0.47;0.47;;;19.20;99.90;;;;;;4436852;32;20146;-76
2023/07/01 06:50:46;;;;;;;0.22;0.22;;;19.30;99.90;;;;;;4434225;32;20076;-77
2023/07/01 06:53:11;;;;;;;1.60;0.65;;;19.30;99.90;;;;;;4435751;32;20114;-76
2023/07/01 06:55:37;;;;;;;0.40;0.40;;;19.40;99.90;;;;;;4434158;32;20073;-76
2023/07/01 06:58:02;;;;;;;0.50;0.50;;;19.50;99.90;;;;;;4434218;32;20076;-77
2023/07/01 07:00:30;;;;;;;0.40;0.40;;;19.50;99.90;;;;;;4435110;32;20088;-76
2023/07/01 07:02:56;;;;;;;0.40;0.40;;;19.60;99.90;;;;;;4437710;32;20109;-76
2023/07/01 07:05:22;;;;;;;0.50;0.50;;;19.70;99.90;;;;;;4437046;32;20576;-76
2023/07/01 07:07:47;;;;;;;0.47;0.47;;;19.70;99.90;;;;;;4436633;32;20078;-76
2023/07/01 07:10:13;;;;;;;0.90;0.50;;;19.70;99.90;;;;;;4435553;32;20089;-77
2023/07/01 07:12:38;;;;;;;1.05;0.98;;;19.80;99.90;;;;;;4437116;32;20077;-77
2023/07/01 07:15:04;;;;;;;0.22;0.22;;;19.80;99.90;;;;;;4437661;32;20541;-77
2023/07/01 07:17:33;;;;;;;0.40;0.40;;;19.90;99.90;;;;;;4435117;32;20542;-77
2023/07/01 07:19:59;;;;;;;0.73;0.73;;;20.00;99.90;;;;;;4437429;32;20072;-77
2023/07/01 07:22:25;;;;;;;1.33;0.75;;;20.10;99.90;;;;;;4436153;32;20081;-77
2023/07/01 07:24:51;;;;;;;0.37;0.37;;;20.20;99.90;;;;;;4433785;32;20089;-77
2023/07/01 07:27:16;;;;;;;0.35;0.35;;;20.30;99.90;;;;;;4432913;32;20097;-76
2023/07/01 07:29:42;;;;;;;1.55;0.75;;;20.40;99.90;;;;;;4434457;32;20435;-76
2023/07/01 07:32:08;;;;;;;0.75;0.37;;;20.50;99.90;;;;;;4434494;32;20108;-77
2023/07/01 07:34:34;;;;;;;0.20;0.20;;;20.60;99.90;;;;;;4434016;32;20080;-77
2023/07/01 07:36:59;;;;;;;0.30;0.30;;;20.70;99.90;;;;;;4433443;32;20104;-78
2023/07/01 07:39:25;;;;;;;0.25;0.25;;;20.70;99.90;;;;;;4432906;32;20132;-77
2023/07/01 07:41:51;;;;;;;0.40;0.40;;;20.80;99.90;;;;;;4434143;32;20109;-76
2023/07/01 07:44:17;;;;;;;0.40;0.40;;;20.90;99.90;;;;;;4435100;32;20540;-77
2023/07/01 07:46:44;;;;;;;0.50;0.50;;;20.80;99.90;;;;;;4433644;32;20097;-77
2023/07/01 07:49:09;;;;;;;3.97;0.35;;;20.80;99.90;;;;;;4433328;32;20423;-77
2023/07/01 07:51:35;;;;;;;0.40;0.40;;;20.80;99.90;;;;;;4432441;32;20143;-76
2023/07/01 07:54:00;;;;;;;0.52;0.52;;;21.00;99.90;;;;;;4434094;32;20177;-77
2023/07/01 07:56:28;;;;;;;0.30;0.30;;;21.10;99.90;;;;;;4433818;32;20089;-77
2023/07/01 07:58:53;;;;;;;0.28;0.28;;;21.20;99.90;;;;;;4434354;32;20074;-76
2023/07/01 08:01:19;;;;;;;0.20;0.20;;;21.30;99.90;;;;;;4433899;32;20085;-76
2023/07/01 08:03:44;;;;;;;1.25;0.73;;;21.40;99.90;;;;;;4431652;32;20061;-76
2023/07/01 08:06:10;;;;;;;0.40;0.40;;;21.50;99.90;;;;;;4431526;32;20096;-76
2023/07/01 08:08:41;;;;;;;0.40;0.40;;;21.60;99.90;;;;;;4437490;32;20076;-77
2023/07/01 08:11:07;;;;;;;0.22;0.22;;;21.70;99.90;;;;;;4436224;32;20085;-77
2023/07/01 08:13:32;;;;;;;0.40;0.40;;;21.70;99.90;;;;;;4435340;32;20104;-75
2023/07/01 08:15:58;;;;;;;0.20;0.20;;;21.90;99.90;;;;;;4434380;32;20089;-77
2023/07/01 08:18:23;;;;;;;0.37;0.37;;;21.90;99.90;;;;;;4432238;32;20066;-76
2023/07/01 08:20:50;;;;;;;0.40;0.40;;;21.90;99.90;;;;;;4433264;32;20425;-77
2023/07/01 08:23:16;;;;;;;0.17;0.17;;;21.90;99.90;;;;;;4437463;32;20463;-77
2023/07/01 08:25:42;;;;;;;0.57;0.57;;;21.90;99.90;;;;;;4434960;32;20088;-77
2023/07/01 08:28:09;;;;;;;8.52;1.58;;;21.90;99.90;;;;;;4435532;32;20077;-76
2023/07/01 08:30:34;;;;;;;0.30;0.30;;;21.90;99.90;;;;;;4436545;32;21054;-78
2023/07/01 08:33:00;;;;;;;0.17;0.17;;;21.90;99.90;;;;;;4435643;32;20430;-76
2023/07/01 08:35:25;;;;;;;0.25;0.25;;;21.90;99.50;;;;;;4434445;32;20094;-78
2023/07/01 08:37:51;;;;;;;0.20;0.20;;;22.00;99.70;;;;;;4434964;32;20065;-77
2023/07/01 08:40:25;;;;;;;0.10;0.10;;;22.00;98.70;;;;;;4439963;32;20122;-78
2023/07/01 08:43:02;;;;;;;0.20;0.20;;;22.10;98.60;;;;;;4438270;32;20076;-78
2023/07/01 08:45:29;;;;;;;0.30;0.30;;;22.20;99.40;;;;;;4439058;32;20073;-77
2023/07/01 08:48:05;;;;;;;0.20;0.20;;;22.20;98.50;;;;;;4437005;32;20536;-77
2023/07/01 08:50:42;;;;;;;0.43;0.43;;;22.20;99.00;;;;;;4438773;32;20228;-78
2023/07/01 08:53:10;;;;;;;0.20;0.20;;;22.40;99.00;;;;;;4437426;32;20512;-78
2023/07/01 08:55:35;;;;;;;0.32;0.32;;;22.40;99.00;;;;;;4437152;32;20068;-78
2023/07/01 08:58:02;;;;;;;0.20;0.20;;;22.60;99.60;;;;;;4435383;32;20080;-78
2023/07/01 09:00:29;;;;;;;0.30;0.30;;;22.80;98.30;;;;;;4437045;32;20065;-78
2023/07/01 09:02:57;;;;;;;0.20;0.20;;;22.80;99.10;;;;;;4437441;32;20109;-78
2023/07/01 09:05:22;;;;;;;0.62;0.43;;;22.80;98.90;;;;;;4435480;32;20061;-77
2023/07/01 09:07:50;;;;;;;0.30;0.30;;;22.80;98.30;;;;;;4434541;32;20082;-76
2023/07/01 09:10:16;;;;;;;0.20;0.20;;;22.80;98.00;;;;;;4439108;32;20078;-78
2023/07/01 09:12:41;;;;;;;0.22;0.22;;;23.00;98.90;;;;;;4442412;32;20060;-78
2023/07/01 09:15:07;;;;;;;3.33;1.10;;;23.00;97.70;;;;;;4438543;32;20078;-76
2023/07/01 09:17:36;;;;;;;0.75;0.75;;;22.80;97.30;;;;;;4440103;32;20148;-77
2023/07/01 09:20:05;;;;;;;0.20;0.20;;;22.90;97.10;;;;;;4439904;32;20085;-76
2023/07/01 09:22:31;;;;;;;0.10;0.10;;;22.90;97.00;;;;;;4438190;32;20151;-76
2023/07/01 09:24:57;;;;;;;0.10;0.10;;;23.00;97.80;;;;;;4436316;32;20143;-76
2023/07/01 09:27:24;;;;;;;0.10;0.10;;;23.10;97.10;;;;;;4435660;32;20127;-77
2023/07/01 09:29:52;;;;;;;0.47;0.35;;;23.20;97.80;;;;;;4437375;32;20076;-77
2023/07/01 09:32:28;;;;;;;0.20;0.20;;;23.30;97.50;;;;;;4439859;32;20145;-76
2023/07/01 09:34:57;;;;;;;2.20;1.05;;;23.30;97.00;;;;;;4434878;32;20144;-77
2023/07/01 09:37:25;;;;;;;0.30;0.30;;;23.20;96.60;;;;;;4438049;32;20081;-77
2023/07/01 09:39:51;;;;;;;0.30;0.30;;;23.10;97.30;;;;;;4437166;32;20092;-76
2023/07/01 09:42:18;;;;;;;0.20;0.20;;;22.90;97.00;;;;;;4435248;32;20094;-78
2023/07/01 09:45:05;;;;;;;0.10;0.10;;;23.10;97.70;;;;;;4437849;32;20135;-78
2023/07/01 09:47:32;;;;;;;0.30;0.30;;;23.30;97.40;;;;;;4432004;32;20137;-76
2023/07/01 09:49:57;;;;;;;0.20;0.20;;;23.30;96.60;;;;;;4437953;32;20201;-77
2023/07/01 09:52:38;;;;;;;0.30;0.30;;;23.40;97.60;;;;;;4436526;32;21257;-78
2023/07/01 09:55:04;;;;;;;1.08;0.40;;;23.90;97.90;;;;;;4432703;32;20108;-75
2023/07/01 09:57:31;;;;;;;2.05;0.52;;;24.20;96.80;;;;;;4438726;32;20065;-77
2023/07/01 09:59:56;;;;;;;0.20;0.20;;;24.30;96.00;;;;;;4438720;32;21226;-76
2023/07/01 10:02:23;;;;;;;1.87;0.32;;;24.30;96.00;;;;;;4436947;32;20068;-76
2023/07/01 10:04:48;;;;;;;0.88;0.65;;;24.20;95.90;;;;;;4437109;32;20080;-78
2023/07/01 10:07:14;;;;;;;0.20;0.20;;;23.90;95.60;;;;;;4436765;32;20080;-76
2023/07/01 10:09:44;;;;;;;0.30;0.30;;;23.80;96.60;;;;;;4436033;32;20517;-75
2023/07/01 10:12:11;;;;;;;0.17;0.17;;;24.10;95.80;;;;;;4437194;32;20631;-76
2023/07/01 10:14:38;;;;;;;0.17;0.17;;;24.30;96.00;;;;;;4437840;32;20121;-78
2023/07/01 10:17:04;;;;;;;0.30;0.30;;;24.10;95.70;;;;;;4436430;32;20524;-76
2023/07/01 10:19:32;;;;;;;0.22;0.20;;;24.20;96.10;;;;;;4439732;32;20118;-76
2023/07/01 10:22:26;;;;;;;0.10;0.10;;;24.40;96.40;;;;;;4437357;32;20140;-75
2023/07/01 10:24:58;;;;;;;0.85;0.65;;;24.70;96.00;;;;;;4433103;32;20069;-76
2023/07/01 10:27:44;;;;;;;1.52;0.35;;;24.80;95.10;;;;;;4435644;32;20487;-76
2023/07/01 10:30:12;;;;;;;1.48;0.43;;;24.90;94.70;;;;;;4431050;32;20162;-75
2023/07/01 10:32:37;;;;;;;0.32;0.30;;;25.20;95.30;;;;;;4431939;32;20564;-76
2023/07/01 10:35:05;;;;;;;0.10;0.10;;;25.10;93.90;;;;;;4434460;32;20069;-77
2023/07/01 10:37:33;;;;;;;0.10;0.10;;;24.80;94.90;;;;;;4428571;32;20080;-76
2023/07/01 10:40:08;;;;;;;0.10;0.10;;;24.70;95.80;;;;;;4433948;32;20575;-76
2023/07/01 10:42:36;;;;;;;0.22;0.22;;;24.70;95.40;;;;;;4434484;32;20074;-75
2023/07/01 10:45:27;;;;;;;0.10;0.10;;;24.90;95.10;;;;;;4435323;32;20084;-77
2023/07/01 10:47:55;;;;;;;0.43;0.35;;;25.00;95.40;;;;;;4434357;32;20077;-76
2023/07/01 10:50:20;;;;;;;2.58;1.05;;;25.10;94.30;;;;;;4435377;32;20070;-76
2023/07/01 10:53:02;;;;;;;0.20;0.20;;;25.00;94.60;;;;;;4434763;32;20068;-75
2023/07/01 10:55:47;;;;;;;0.20;0.20;;;25.20;95.30;;;;;;4434194;32;20076;-76
2023/07/01 10:58:23;;;;;;;0.17;0.17;;;25.50;94.50;;;;;;4434297;32;20200;-76
2023/07/01 11:00:58;;;;;;;0.22;0.22;;;25.40;93.70;;;;;;4431296;32;20446;-77
2023/07/01 11:03:47;;;;;;;0.20;0.20;;;25.20;94.50;;;;;;4434282;32;20435;-76
2023/07/01 11:06:13;;;;;;;0.10;0.10;;;25.40;94.60;;;;;;4429641;32;20191;-76
2023/07/01 11:08:56;;;;;;;1.50;0.77;;;25.50;95.50;;;;;;4435190;32;20073;-77
2023/07/01 11:11:24;;;;;;;1.48;0.28;;;25.80;94.00;;;;;;4436761;32;20146;-76
2023/07/01 11:14:00;;;;;;;0.20;0.20;;;25.90;93.90;;;;;;4432345;32;20089;-77
2023/07/01 11:16:26;;;;;;;1.10;0.65;;;25.70;94.00;;;;;;4433687;32;20409;-75
2023/07/01 11:18:53;;;;;;;1.08;0.28;;;25.80;95.00;;;;;;4431213;32;20882;-76
2023/07/01 11:21:23;;;;;;;0.20;0.20;;;26.00;94.30;;;;;;4433662;32;20089;-77
2023/07/01 11:24:07;;;;;;;0.25;0.25;;;26.40;94.10;;;;;;4432266;32;20455;-78
2023/07/01 11:26:38;;;;;;;0.20;0.20;;;26.50;93.20;;;;;;4434299;32;20159;-77
2023/07/01 11:29:10;;;;;;;0.40;0.40;;;27.20;94.40;;;;;;4431711;32;20091;-77
2023/07/01 11:31:36;;;;;;;0.30;0.30;;;27.60;92.60;;;;;;4432835;32;20081;-76
2023/07/01 11:34:03;;;;;;;0.88;0.30;;;27.10;91.60;;;;;;4430914;32;20404;-75
2023/07/01 11:36:35;;;;;;;0.52;0.50;;;26.40;92.80;;;;;;4429753;32;20809;-77
2023/07/01 11:39:13;;;;;;;0.10;0.10;;;26.00;93.00;;;;;;4429389;32;20833;-76
2023/07/01 11:41:40;;;;;;;0.25;0.25;;;25.60;93.00;;;;;;4432006;32;20077;-76
2023/07/01 11:44:14;;;;;;;0.28;0.28;;;25.40;92.90;;;;;;4430173;32;20065;-78
2023/07/01 11:46:41;;;;;;;15.20;0.60;;;25.70;93.20;;;;;;4432630;32;112637;-78
2023/07/01 11:49:29;;;;;;;0.15;0.15;;;26.30;93.40;;;;;;4433164;32;20100;-78
2023/07/01 11:51:58;;;;;;;0.30;0.20;;;26.70;91.60;;;;;;4428157;32;20085;-76
2023/07/01 11:54:40;;;;;;;0.20;0.20;;;27.20;91.60;;;;;;4428472;32;20093;-77
2023/07/01 11:57:12;;;;;;;0.20;0.20;;;27.00;92.20;;;;;;4428648;32;20455;-74
2023/07/01 11:59:38;;;;;;;0.10;0.10;;;26.70;91.70;;;;;;4432230;32;20085;-76
2023/07/01 12:02:04;;;;;;;0.43;0.43;;;26.30;91.90;;;;;;4436002;32;20084;-77
2023/07/01 12:04:31;;;;;;;0.13;0.13;;;26.10;92.60;;;;;;4435601;32;20085;-78
2023/07/01 12:07:15;;;;;;;2.30;0.57;;;26.50;92.30;;;;;;4434132;32;20065;-77
2023/07/01 12:09:47;;;;;;;0.20;0.20;;;26.60;91.50;;;;;;4434115;32;20092;-78
2023/07/01 12:12:17;;;;;;;2.92;0.70;;;26.30;92.40;;;;;;4434910;32;21069;-76
2023/07/01 12:14:43;;;;;;;0.37;0.30;;;26.10;91.90;;;;;;4432801;32;20113;-77
2023/07/01 12:17:29;;;;;;;2.55;0.35;;;26.00;91.30;;;;;;4434069;32;20065;-77
2023/07/01 12:19:54;;;;;;;0.30;0.30;;;25.80;91.90;;;;;;4433065;32;20139;-77
2023/07/01 12:22:20;;;;;;;0.10;0.10;;;25.50;91.80;;;;;;4427568;32;20132;-77
2023/07/01 12:24:56;;;;;;;2.05;0.43;;;25.30;91.70;;;;;;4431090;32;20872;-76
2023/07/01 12:27:24;;;;;;;0.10;0.10;;;25.30;92.00;;;;;;4432638;32;20057;-76
2023/07/01 12:29:51;;;;;;;0.47;0.47;;;25.60;91.70;;;;;;4435302;32;20178;-76
2023/07/01 12:32:18;;;;;;;0.20;0.20;;;26.30;90.90;;;;;;4432204;32;20068;-77
2023/07/01 12:34:44;;;;;;;0.15;0.15;;;27.40;90.50;;;;;;4432796;32;20435;-76
2023/07/01 12:37:11;;;;;;;0.35;0.25;;;27.90;86.60;;;;;;4434932;32;20109;-75
2023/07/01 12:39:37;;;;;;;0.88;0.25;;;27.80;88.70;;;;;;4432699;32;20470;-76
2023/07/01 12:42:03;;;;;;;1.75;0.47;;;27.90;85.70;;;;;;4432811;32;20096;-75
2023/07/01 12:44:29;;;;;;;5.82;1.20;;;28.10;86.20;;;;;;4435291;32;20104;-77
2023/07/01 12:46:54;;;;;;;4.85;1.10;;;28.00;87.10;;;;;;4437644;32;20069;-75
2023/07/01 12:49:21;;;;;;;0.45;0.30;;;27.70;86.10;;;;;;4438338;32;20120;-78
2023/07/01 12:51:47;;;;;;;8.30;1.10;;;27.30;85.90;;;;;;4439410;32;20199;-77